sensor_id;sensor_type;location;lat;lon;timestamp;temperature;humidity
3334;DHT22;1679;50.392;8.008;2022-07-29T00:01:36;20.00;99.90
3334;DHT22;1679;50.392;8.008;2022-07-29T00:04:02;20.00;99.90
3334;DHT22;1679;50.392;8.008;2022-07-29T00:06:27;20.00;99.90
3334;DHT22;1679;50.392;8.008;2022-07-29T00:08:53;20.10;99.90
3334;DHT22;1679;50.392;8.008;2022-07-29T00:11:19;20.10;99.90
3334;DHT22;1679;50.392;8.008;2022-07-29T00:13:44;20.10;99.90
3334;DHT22;1679;50.392;8.008;2022-07-29T00:16:10;20.10;99.90
3334;DHT22;1679;50.392;8.008;2022-07-29T00:18:35;20.00;99.90
3334;DHT22;1679;50.392;8.008;2022-07-29T00:21:01;19.80;99.90
3334;DHT22;1679;50.392;8.008;2022-07-29T00:23:26;19.80;99.90
3334;DHT22;1679;50.392;8.008;2022-07-29T00:25:52;19.80;99.90
3334;DHT22;1679;50.392;8.008;2022-07-29T00:28:17;19.80;99.90
3334;DHT22;1679;50.392;8.008;2022-07-29T00:30:43;19.80;99.90
3334;DHT22;1679;50.392;8.008;2022-07-29T00:33:09;19.70;99.90
3334;DHT22;1679;50.392;8.008;2022-07-29T00:35:35;19.70;99.90
3334;DHT22;1679;50.392;8.008;2022-07-29T00:38:14;19.70;99.90
3334;DHT22;1679;50.392;8.008;2022-07-29T00:40:40;19.70;99.90
3334;DHT22;1679;50.392;8.008;2022-07-29T00:43:06;19.70;99.90
3334;DHT22;1679;50.392;8.008;2022-07-29T00:45:32;19.60;99.90
3334;DHT22;1679;50.392;8.008;2022-07-29T00:47:58;19.70;99.90
3334;DHT22;1679;50.392;8.008;2022-07-29T00:50:24;19.60;99.90
3334;DHT22;1679;50.392;8.008;2022-07-29T00:52:50;19.70;99.90
3334;DHT22;1679;50.392;8.008;2022-07-29T00:55:17;19.70;99.90
3334;DHT22;1679;50.392;8.008;2022-07-29T00:57:44;19.50;99.90
3334;DHT22;1679;50.392;8.008;2022-07-29T01:00:14;19.20;99.90
3334;DHT22;1679;50.392;8.008;2022-07-29T01:02:40;19.00;99.90
3334;DHT22;1679;50.392;8.008;2022-07-29T01:05:06;18.70;99.90
3334;DHT22;1679;50.392;8.008;2022-07-29T01:07:33;18.60;99.90
3334;DHT22;1679;50.392;8.008;2022-07-29T01:10:00;18.50;99.90
3334;DHT22;1679;50.392;8.008;2022-07-29T01:12:29;18.50;99.90
3334;DHT22;1679;50.392;8.008;2022-07-29T01:14:58;18.40;99.90
3334;DHT22;1679;50.392;8.008;2022-07-29T01:20:26;18.30;99.90
3334;DHT22;1679;50.392;8.008;2022-07-29T01:31:03;18.10;99.90
3334;DHT22;1679;50.392;8.008;2022-07-29T01:33:30;18.10;99.90
3334;DHT22;1679;50.392;8.008;2022-07-29T01:36:18;18.10;99.90
3334;DHT22;1679;50.392;8.008;2022-07-29T01:38:54;18.10;99.90
3334;DHT22;1679;50.392;8.008;2022-07-29T01:41:24;18.10;99.90
3334;DHT22;1679;50.392;8.008;2022-07-29T01:43:57;18.10;99.90
3334;DHT22;1679;50.392;8.008;2022-07-29T01:46:48;18.00;99.90
3334;DHT22;1679;50.392;8.008;2022-07-29T01:49:17;18.00;99.90
3334;DHT22;1679;50.392;8.008;2022-07-29T01:51:51;18.00;99.90
3334;DHT22;1679;50.392;8.008;2022-07-29T01:54:24;17.90;99.90
3334;DHT22;1679;50.392;8.008;2022-07-29T01:56:53;17.90;99.90
3334;DHT22;1679;50.392;8.008;2022-07-29T01:59:21;17.90;99.90
3334;DHT22;1679;50.392;8.008;2022-07-29T02:01:50;17.80;99.90
3334;DHT22;1679;50.392;8.008;2022-07-29T02:04:19;17.70;99.90
3334;DHT22;1679;50.392;8.008;2022-07-29T02:06:47;17.70;99.90
3334;DHT22;1679;50.392;8.008;2022-07-29T02:09:14;17.70;99.90
3334;DHT22;1679;50.392;8.008;2022-07-29T02:11:47;17.80;99.90
3334;DHT22;1679;50.392;8.008;2022-07-29T02:14:14;17.80;99.90
3334;DHT22;1679;50.392;8.008;2022-07-29T02:16:41;17.80;99.90
3334;DHT22;1679;50.392;8.008;2022-07-29T02:19:08;17.80;99.90
3334;DHT22;1679;50.392;8.008;2022-07-29T02:21:35;17.70;99.90
3334;DHT22;1679;50.392;8.008;2022-07-29T02:24:02;17.70;99.90
3334;DHT22;1679;50.392;8.008;2022-07-29T02:26:30;17.70;99.90
3334;DHT22;1679;50.392;8.008;2022-07-29T02:28:58;17.60;99.90
3334;DHT22;1679;50.392;8.008;2022-07-29T02:31:28;17.50;99.90
3334;DHT22;1679;50.392;8.008;2022-07-29T02:33:54;17.50;99.90
3334;DHT22;1679;50.392;8.008;2022-07-29T02:36:22;17.40;99.90
3334;DHT22;1679;50.392;8.008;2022-07-29T02:38:50;17.40;99.90
3334;DHT22;1679;50.392;8.008;2022-07-29T02:41:20;17.30;99.90
3334;DHT22;1679;50.392;8.008;2022-07-29T02:43:52;17.30;99.90
3334;DHT22;1679;50.392;8.008;2022-07-29T02:46:23;17.20;99.90
3334;DHT22;1679;50.392;8.008;2022-07-29T02:48:57;17.20;99.90
3334;DHT22;1679;50.392;8.008;2022-07-29T02:51:28;17.10;99.90
3334;DHT22;1679;50.392;8.008;2022-07-29T02:53:59;17.10;99.90
3334;DHT22;1679;50.392;8.008;2022-07-29T02:56:28;17.10;99.90
3334;DHT22;1679;50.392;8.008;2022-07-29T02:59:02;17.00;99.90
3334;DHT22;1679;50.392;8.008;2022-07-29T03:01:31;16.90;99.90
3334;DHT22;1679;50.392;8.008;2022-07-29T03:04:01;16.90;99.90
3334;DHT22;1679;50.392;8.008;2022-07-29T03:06:30;16.80;99.90
3334;DHT22;1679;50.392;8.008;2022-07-29T03:08:59;16.80;99.90
3334;DHT22;1679;50.392;8.008;2022-07-29T03:11:25;16.70;99.90
3334;DHT22;1679;50.392;8.008;2022-07-29T03:13:51;16.70;99.90
3334;DHT22;1679;50.392;8.008;2022-07-29T03:16:19;16.70;99.90
3334;DHT22;1679;50.392;8.008;2022-07-29T03:18:44;16.60;99.90
3334;DHT22;1679;50.392;8.008;2022-07-29T03:21:10;16.50;99.90
3334;DHT22;1679;50.392;8.008;2022-07-29T03:23:36;16.50;99.90
3334;DHT22;1679;50.392;8.008;2022-07-29T03:26:02;16.40;99.90
3334;DHT22;1679;50.392;8.008;2022-07-29T03:28:27;16.40;99.90
3334;DHT22;1679;50.392;8.008;2022-07-29T03:30:53;16.40;99.90
3334;DHT22;1679;50.392;8.008;2022-07-29T03:33:19;16.50;99.90
3334;DHT22;1679;50.392;8.008;2022-07-29T03:35:45;16.50;99.90
3334;DHT22;1679;50.392;8.008;2022-07-29T03:38:11;16.50;99.90
3334;DHT22;1679;50.392;8.008;2022-07-29T03:40:48;16.60;99.90
3334;DHT22;1679;50.392;8.008;2022-07-29T03:43:16;16.60;99.90
3334;DHT22;1679;50.392;8.008;2022-07-29T03:45:45;16.60;99.90
3334;DHT22;1679;50.392;8.008;2022-07-29T03:48:15;16.70;99.90
3334;DHT22;1679;50.392;8.008;2022-07-29T03:50:41;16.70;99.90
3334;DHT22;1679;50.392;8.008;2022-07-29T03:53:08;16.70;99.90
3334;DHT22;1679;50.392;8.008;2022-07-29T03:55:40;16.70;99.90
3334;DHT22;1679;50.392;8.008;2022-07-29T03:58:06;16.70;99.90
3334;DHT22;1679;50.392;8.008;2022-07-29T04:00:34;16.70;99.90
3334;DHT22;1679;50.392;8.008;2022-07-29T04:03:00;16.70;99.90
3334;DHT22;1679;50.392;8.008;2022-07-29T04:05:26;16.70;99.90
3334;DHT22;1679;50.392;8.008;2022-07-29T04:07:52;16.70;99.90
3334;DHT22;1679;50.392;8.008;2022-07-29T04:10:18;16.60;99.90
3334;DHT22;1679;50.392;8.008;2022-07-29T04:12:46;16.70;99.90
3334;DHT22;1679;50.392;8.008;2022-07-29T04:15:12;16.70;99.90
3334;DHT22;1679;50.392;8.008;2022-07-29T04:17:38;16.60;99.90
3334;DHT22;1679;50.392;8.008;2022-07-29T04:20:04;16.50;99.90
3334;DHT22;1679;50.392;8.008;2022-07-29T04:22:30;16.40;99.90
3334;DHT22;1679;50.392;8.008;2022-07-29T04:24:56;16.40;99.90
3334;DHT22;1679;50.392;8.008;2022-07-29T04:27:21;16.40;99.90
3334;DHT22;1679;50.392;8.008;2022-07-29T04:29:47;16.40;99.90
3334;DHT22;1679;50.392;8.008;2022-07-29T04:32:12;16.30;99.90
3334;DHT22;1679;50.392;8.008;2022-07-29T04:34:38;16.30;99.90
3334;DHT22;1679;50.392;8.008;2022-07-29T04:37:03;16.20;99.90
3334;DHT22;1679;50.392;8.008;2022-07-29T04:39:29;16.30;99.90
3334;DHT22;1679;50.392;8.008;2022-07-29T04:41:55;16.30;99.90
3334;DHT22;1679;50.392;8.008;2022-07-29T04:44:21;16.20;99.90
3334;DHT22;1679;50.392;8.008;2022-07-29T04:46:47;16.20;99.90
3334;DHT22;1679;50.392;8.008;2022-07-29T04:49:12;16.10;99.90
3334;DHT22;1679;50.392;8.008;2022-07-29T04:51:38;16.20;99.90
3334;DHT22;1679;50.392;8.008;2022-07-29T04:54:04;16.20;99.90
3334;DHT22;1679;50.392;8.008;2022-07-29T04:56:29;16.30;99.90
3334;DHT22;1679;50.392;8.008;2022-07-29T04:58:55;16.30;99.90
3334;DHT22;1679;50.392;8.008;2022-07-29T05:01:20;16.30;99.90
3334;DHT22;1679;50.392;8.008;2022-07-29T05:03:46;16.30;99.90
3334;DHT22;1679;50.392;8.008;2022-07-29T05:06:12;16.40;99.90
3334;DHT22;1679;50.392;8.008;2022-07-29T05:08:37;16.50;99.90
3334;DHT22;1679;50.392;8.008;2022-07-29T05:11:03;16.60;99.90
3334;DHT22;1679;50.392;8.008;2022-07-29T05:13:29;16.80;99.90
3334;DHT22;1679;50.392;8.008;2022-07-29T05:15:55;16.80;99.90
3334;DHT22;1679;50.392;8.008;2022-07-29T05:18:25;16.90;99.90
3334;DHT22;1679;50.392;8.008;2022-07-29T05:20:50;17.00;99.90
3334;DHT22;1679;50.392;8.008;2022-07-29T05:23:16;17.00;99.90
3334;DHT22;1679;50.392;8.008;2022-07-29T05:25:42;17.10;99.90
3334;DHT22;1679;50.392;8.008;2022-07-29T05:28:07;17.20;99.90
3334;DHT22;1679;50.392;8.008;2022-07-29T05:30:33;17.20;99.90
3334;DHT22;1679;50.392;8.008;2022-07-29T05:32:58;17.30;99.90
3334;DHT22;1679;50.392;8.008;2022-07-29T05:35:24;17.50;99.90
3334;DHT22;1679;50.392;8.008;2022-07-29T05:37:50;17.60;99.90
3334;DHT22;1679;50.392;8.008;2022-07-29T05:40:15;17.60;99.90
3334;DHT22;1679;50.392;8.008;2022-07-29T05:42:41;17.60;99.90
3334;DHT22;1679;50.392;8.008;2022-07-29T05:45:07;17.60;99.90
3334;DHT22;1679;50.392;8.008;2022-07-29T05:47:33;17.70;99.90
3334;DHT22;1679;50.392;8.008;2022-07-29T05:49:59;17.70;99.90
3334;DHT22;1679;50.392;8.008;2022-07-29T05:52:25;17.80;99.90
3334;DHT22;1679;50.392;8.008;2022-07-29T05:54:50;17.90;99.90
3334;DHT22;1679;50.392;8.008;2022-07-29T05:57:21;17.90;99.90
3334;DHT22;1679;50.392;8.008;2022-07-29T05:59:48;18.10;99.90
3334;DHT22;1679;50.392;8.008;2022-07-29T06:02:14;18.20;99.90
3334;DHT22;1679;50.392;8.008;2022-07-29T06:04:40;18.40;99.90
3334;DHT22;1679;50.392;8.008;2022-07-29T06:07:05;18.50;99.90
3334;DHT22;1679;50.392;8.008;2022-07-29T06:09:32;18.70;99.90
3334;DHT22;1679;50.392;8.008;2022-07-29T06:11:58;19.00;99.90
3334;DHT22;1679;50.392;8.008;2022-07-29T06:14:24;19.30;99.90
3334;DHT22;1679;50.392;8.008;2022-07-29T06:16:50;19.50;99.90
3334;DHT22;1679;50.392;8.008;2022-07-29T06:19:16;19.70;99.90
3334;DHT22;1679;50.392;8.008;2022-07-29T06:21:42;19.80;99.90
3334;DHT22;1679;50.392;8.008;2022-07-29T06:24:10;19.70;99.90
3334;DHT22;1679;50.392;8.008;2022-07-29T06:26:35;19.70;99.90
3334;DHT22;1679;50.392;8.008;2022-07-29T06:29:01;19.70;99.90
3334;DHT22;1679;50.392;8.008;2022-07-29T06:31:26;19.70;99.90
3334;DHT22;1679;50.392;8.008;2022-07-29T06:33:52;19.80;99.90
3334;DHT22;1679;50.392;8.008;2022-07-29T06:36:18;20.10;99.90
3334;DHT22;1679;50.392;8.008;2022-07-29T06:38:43;20.40;99.90
3334;DHT22;1679;50.392;8.008;2022-07-29T06:41:09;20.60;99.90
3334;DHT22;1679;50.392;8.008;2022-07-29T06:43:39;20.90;99.90
3334;DHT22;1679;50.392;8.008;2022-07-29T06:46:11;21.10;99.90
3334;DHT22;1679;50.392;8.008;2022-07-29T06:48:38;21.20;99.90
3334;DHT22;1679;50.392;8.008;2022-07-29T06:51:05;21.20;99.90
3334;DHT22;1679;50.392;8.008;2022-07-29T06:53:32;21.40;99.90
3334;DHT22;1679;50.392;8.008;2022-07-29T06:55:59;21.60;99.90
3334;DHT22;1679;50.392;8.008;2022-07-29T06:58:26;21.80;99.90
3334;DHT22;1679;50.392;8.008;2022-07-29T07:00:52;22.00;99.90
3334;DHT22;1679;50.392;8.008;2022-07-29T07:03:18;22.00;99.90
3334;DHT22;1679;50.392;8.008;2022-07-29T07:05:45;22.10;99.90
3334;DHT22;1679;50.392;8.008;2022-07-29T07:08:11;22.10;99.90
3334;DHT22;1679;50.392;8.008;2022-07-29T07:10:37;22.30;99.90
3334;DHT22;1679;50.392;8.008;2022-07-29T07:13:04;22.00;99.90
3334;DHT22;1679;50.392;8.008;2022-07-29T07:15:30;22.00;99.90
3334;DHT22;1679;50.392;8.008;2022-07-29T07:17:56;22.10;99.90
3334;DHT22;1679;50.392;8.008;2022-07-29T07:20:23;22.20;99.90
3334;DHT22;1679;50.392;8.008;2022-07-29T07:22:49;22.30;99.90
3334;DHT22;1679;50.392;8.008;2022-07-29T07:25:14;22.60;99.90
3334;DHT22;1679;50.392;8.008;2022-07-29T07:27:40;23.30;99.90
3334;DHT22;1679;50.392;8.008;2022-07-29T07:30:06;23.70;99.90
3334;DHT22;1679;50.392;8.008;2022-07-29T07:32:33;24.70;99.90
3334;DHT22;1679;50.392;8.008;2022-07-29T07:34:59;25.30;99.90
3334;DHT22;1679;50.392;8.008;2022-07-29T07:37:25;25.20;99.90
3334;DHT22;1679;50.392;8.008;2022-07-29T07:39:51;25.30;99.90
3334;DHT22;1679;50.392;8.008;2022-07-29T07:42:18;24.80;99.90
3334;DHT22;1679;50.392;8.008;2022-07-29T07:44:44;24.80;99.90
3334;DHT22;1679;50.392;8.008;2022-07-29T07:47:11;24.60;99.90
3334;DHT22;1679;50.392;8.008;2022-07-29T07:49:37;24.40;99.90
3334;DHT22;1679;50.392;8.008;2022-07-29T07:52:03;24.40;99.90
3334;DHT22;1679;50.392;8.008;2022-07-29T07:54:28;23.90;99.90
3334;DHT22;1679;50.392;8.008;2022-07-29T07:56:54;23.50;99.90
3334;DHT22;1679;50.392;8.008;2022-07-29T07:59:20;23.80;99.90
3334;DHT22;1679;50.392;8.008;2022-07-29T08:01:45;24.10;99.90
3334;DHT22;1679;50.392;8.008;2022-07-29T08:04:11;24.00;99.90
3334;DHT22;1679;50.392;8.008;2022-07-29T08:06:36;23.50;99.90
3334;DHT22;1679;50.392;8.008;2022-07-29T08:09:03;23.50;99.90
3334;DHT22;1679;50.392;8.008;2022-07-29T08:11:30;23.80;99.90
3334;DHT22;1679;50.392;8.008;2022-07-29T08:13:55;24.00;99.90
3334;DHT22;1679;50.392;8.008;2022-07-29T08:16:21;24.00;99.90
3334;DHT22;1679;50.392;8.008;2022-07-29T08:18:47;24.00;99.90
3334;DHT22;1679;50.392;8.008;2022-07-29T08:21:14;24.00;99.90
3334;DHT22;1679;50.392;8.008;2022-07-29T08:23:41;24.00;99.90
3334;DHT22;1679;50.392;8.008;2022-07-29T08:26:18;24.00;99.90
3334;DHT22;1679;50.392;8.008;2022-07-29T08:28:44;23.80;99.90
3334;DHT22;1679;50.392;8.008;2022-07-29T08:31:12;23.90;99.90
3334;DHT22;1679;50.392;8.008;2022-07-29T08:33:38;24.00;99.90
3334;DHT22;1679;50.392;8.008;2022-07-29T08:36:05;24.10;99.90
3334;DHT22;1679;50.392;8.008;2022-07-29T08:38:31;24.30;99.90
3334;DHT22;1679;50.392;8.008;2022-07-29T08:40:57;24.60;99.90
3334;DHT22;1679;50.392;8.008;2022-07-29T08:43:24;24.80;99.90
3334;DHT22;1679;50.392;8.008;2022-07-29T08:45:51;24.90;99.90
3334;DHT22;1679;50.392;8.008;2022-07-29T08:48:19;24.90;99.90
3334;DHT22;1679;50.392;8.008;2022-07-29T08:50:46;25.10;99.90
3334;DHT22;1679;50.392;8.008;2022-07-29T08:53:14;25.20;99.90
3334;DHT22;1679;50.392;8.008;2022-07-29T08:55:43;25.10;99.90
3334;DHT22;1679;50.392;8.008;2022-07-29T08:58:09;25.40;99.90
3334;DHT22;1679;50.392;8.008;2022-07-29T09:00:37;26.10;99.90
3334;DHT22;1679;50.392;8.008;2022-07-29T09:03:06;26.60;99.90
3334;DHT22;1679;50.392;8.008;2022-07-29T09:05:34;27.20;98.20
3334;DHT22;1679;50.392;8.008;2022-07-29T09:08:01;27.60;97.50
3334;DHT22;1679;50.392;8.008;2022-07-29T09:10:27;27.90;97.00
3334;DHT22;1679;50.392;8.008;2022-07-29T09:12:54;27.40;97.00
3334;DHT22;1679;50.392;8.008;2022-07-29T09:15:20;26.90;98.00
3334;DHT22;1679;50.392;8.008;2022-07-29T09:17:47;26.70;97.60
3334;DHT22;1679;50.392;8.008;2022-07-29T09:20:16;26.80;98.00
3334;DHT22;1679;50.392;8.008;2022-07-29T09:22:42;26.70;98.00
3334;DHT22;1679;50.392;8.008;2022-07-29T09:25:08;26.60;98.30
3334;DHT22;1679;50.392;8.008;2022-07-29T09:27:33;26.50;98.00
3334;DHT22;1679;50.392;8.008;2022-07-29T09:30:03;26.30;98.30
3334;DHT22;1679;50.392;8.008;2022-07-29T09:32:30;26.50;98.80
3334;DHT22;1679;50.392;8.008;2022-07-29T09:35:18;26.70;97.90
3334;DHT22;1679;50.392;8.008;2022-07-29T09:37:44;27.00;98.30
3334;DHT22;1679;50.392;8.008;2022-07-29T09:40:31;27.30;98.40
3334;DHT22;1679;50.392;8.008;2022-07-29T09:42:56;27.80;97.40
3334;DHT22;1679;50.392;8.008;2022-07-29T09:45:28;27.70;97.30
3334;DHT22;1679;50.392;8.008;2022-07-29T09:47:54;27.50;97.20
3334;DHT22;1679;50.392;8.008;2022-07-29T09:50:22;27.40;97.20
3334;DHT22;1679;50.392;8.008;2022-07-29T09:52:52;27.30;97.30
3334;DHT22;1679;50.392;8.008;2022-07-29T09:55:19;27.70;97.60
3334;DHT22;1679;50.392;8.008;2022-07-29T09:57:45;28.20;96.80
3334;DHT22;1679;50.392;8.008;2022-07-29T10:00:17;28.70;95.30
3334;DHT22;1679;50.392;8.008;2022-07-29T10:02:44;28.50;95.70
3334;DHT22;1679;50.392;8.008;2022-07-29T10:05:23;28.90;95.20
3334;DHT22;1679;50.392;8.008;2022-07-29T10:07:58;28.70;94.30
3334;DHT22;1679;50.392;8.008;2022-07-29T10:10:33;28.80;94.60
3334;DHT22;1679;50.392;8.008;2022-07-29T10:13:05;29.10;94.20
3334;DHT22;1679;50.392;8.008;2022-07-29T10:15:34;29.20;94.00
3334;DHT22;1679;50.392;8.008;2022-07-29T10:18:04;29.20;94.20
3334;DHT22;1679;50.392;8.008;2022-07-29T10:20:31;29.30;93.70
3334;DHT22;1679;50.392;8.008;2022-07-29T10:22:57;29.70;94.10
3334;DHT22;1679;50.392;8.008;2022-07-29T10:25:23;29.90;93.60
3334;DHT22;1679;50.392;8.008;2022-07-29T10:27:49;30.00;93.20
3334;DHT22;1679;50.392;8.008;2022-07-29T10:30:17;30.00;93.30
3334;DHT22;1679;50.392;8.008;2022-07-29T10:44:08;29.50;93.40
3334;DHT22;1679;50.392;8.008;2022-07-29T10:46:39;29.40;93.20
3334;DHT22;1679;50.392;8.008;2022-07-29T10:49:16;29.40;93.20
3334;DHT22;1679;50.392;8.008;2022-07-29T10:51:51;29.30;93.40
3334;DHT22;1679;50.392;8.008;2022-07-29T11:00:36;28.90;94.60
3334;DHT22;1679;50.392;8.008;2022-07-29T11:02:41;28.90;93.80
3334;DHT22;1679;50.392;8.008;2022-07-29T11:07:36;28.90;93.90
3334;DHT22;1679;50.392;8.008;2022-07-29T11:15:10;29.20;94.10
3334;DHT22;1679;50.392;8.008;2022-07-29T11:20:41;29.10;94.20
3334;DHT22;1679;50.392;8.008;2022-07-29T11:25:54;28.60;93.90
3334;DHT22;1679;50.392;8.008;2022-07-29T11:28:33;27.90;94.90
3334;DHT22;1679;50.392;8.008;2022-07-29T11:31:01;27.80;95.30
3334;DHT22;1679;50.392;8.008;2022-07-29T11:33:35;27.90;95.40
3334;DHT22;1679;50.392;8.008;2022-07-29T11:36:12;27.80;95.20
3334;DHT22;1679;50.392;8.008;2022-07-29T11:38:39;28.00;94.90
3334;DHT22;1679;50.392;8.008;2022-07-29T11:41:30;27.70;95.70
3334;DHT22;1679;50.392;8.008;2022-07-29T11:44:01;27.60;95.10
3334;DHT22;1679;50.392;8.008;2022-07-29T11:49:24;27.70;95.60
3334;DHT22;1679;50.392;8.008;2022-07-29T11:51:55;27.60;95.70
3334;DHT22;1679;50.392;8.008;2022-07-29T11:54:27;27.50;96.00
3334;DHT22;1679;50.392;8.008;2022-07-29T11:56:57;27.30;96.20
3334;DHT22;1679;50.392;8.008;2022-07-29T11:59:24;27.40;96.50
3334;DHT22;1679;50.392;8.008;2022-07-29T12:01:54;27.60;96.10
3334;DHT22;1679;50.392;8.008;2022-07-29T12:04:19;27.60;96.00
3334;DHT22;1679;50.392;8.008;2022-07-29T12:06:51;27.30;96.50
3334;DHT22;1679;50.392;8.008;2022-07-29T12:09:18;27.50;96.20
3334;DHT22;1679;50.392;8.008;2022-07-29T12:11:44;27.70;95.90
3334;DHT22;1679;50.392;8.008;2022-07-29T12:14:33;27.90;95.90
3334;DHT22;1679;50.392;8.008;2022-07-29T12:16:59;27.90;96.20
3334;DHT22;1679;50.392;8.008;2022-07-29T12:19:28;28.00;96.00
3334;DHT22;1679;50.392;8.008;2022-07-29T12:21:54;28.00;96.10
3334;DHT22;1679;50.392;8.008;2022-07-29T12:24:21;27.80;96.30
3334;DHT22;1679;50.392;8.008;2022-07-29T12:26:54;27.80;96.40
3334;DHT22;1679;50.392;8.008;2022-07-29T12:29:20;27.70;96.60
3334;DHT22;1679;50.392;8.008;2022-07-29T12:31:46;27.50;96.20
3334;DHT22;1679;50.392;8.008;2022-07-29T12:34:13;27.50;96.60
3334;DHT22;1679;50.392;8.008;2022-07-29T12:36:42;27.40;96.80
3334;DHT22;1679;50.392;8.008;2022-07-29T12:39:08;27.30;97.10
3334;DHT22;1679;50.392;8.008;2022-07-29T12:41:35;27.40;97.20
3334;DHT22;1679;50.392;8.008;2022-07-29T12:44:00;27.50;97.90
3334;DHT22;1679;50.392;8.008;2022-07-29T12:46:26;27.60;97.40
3334;DHT22;1679;50.392;8.008;2022-07-29T12:48:53;27.80;97.50
3334;DHT22;1679;50.392;8.008;2022-07-29T12:51:37;28.10;97.00
3334;DHT22;1679;50.392;8.008;2022-07-29T12:54:07;28.20;96.80
3334;DHT22;1679;50.392;8.008;2022-07-29T12:56:33;28.20;96.70
3334;DHT22;1679;50.392;8.008;2022-07-29T12:58:59;27.90;96.70
3334;DHT22;1679;50.392;8.008;2022-07-29T13:01:24;27.90;97.30
3334;DHT22;1679;50.392;8.008;2022-07-29T13:03:56;28.20;97.60
3334;DHT22;1679;50.392;8.008;2022-07-29T13:09:15;28.90;96.40
3334;DHT22;1679;50.392;8.008;2022-07-29T13:14:08;28.90;96.60
3334;DHT22;1679;50.392;8.008;2022-07-29T13:16:35;28.80;96.00
3334;DHT22;1679;50.392;8.008;2022-07-29T13:19:09;28.50;96.70
3334;DHT22;1679;50.392;8.008;2022-07-29T13:21:35;28.50;96.00
3334;DHT22;1679;50.392;8.008;2022-07-29T13:24:01;28.50;95.90
3334;DHT22;1679;50.392;8.008;2022-07-29T13:26:27;28.50;96.20
3334;DHT22;1679;50.392;8.008;2022-07-29T13:28:53;28.60;96.50
3334;DHT22;1679;50.392;8.008;2022-07-29T13:31:20;28.70;96.70
3334;DHT22;1679;50.392;8.008;2022-07-29T13:33:45;28.70;96.30
3334;DHT22;1679;50.392;8.008;2022-07-29T13:36:11;28.80;96.40
3334;DHT22;1679;50.392;8.008;2022-07-29T13:38:36;29.00;95.60
3334;DHT22;1679;50.392;8.008;2022-07-29T13:41:02;29.20;96.40
3334;DHT22;1679;50.392;8.008;2022-07-29T13:43:27;29.40;95.40
3334;DHT22;1679;50.392;8.008;2022-07-29T13:45:53;29.50;95.50
3334;DHT22;1679;50.392;8.008;2022-07-29T13:48:19;29.60;95.00
3334;DHT22;1679;50.392;8.008;2022-07-29T13:50:44;29.30;95.40
3334;DHT22;1679;50.392;8.008;2022-07-29T13:53:10;29.10;95.40
3334;DHT22;1679;50.392;8.008;2022-07-29T13:55:36;29.00;95.40
3334;DHT22;1679;50.392;8.008;2022-07-29T13:58:02;29.10;95.30
3334;DHT22;1679;50.392;8.008;2022-07-29T14:00:28;28.80;95.00
3334;DHT22;1679;50.392;8.008;2022-07-29T14:02:54;28.00;94.80
3334;DHT22;1679;50.392;8.008;2022-07-29T14:05:20;27.70;96.00
3334;DHT22;1679;50.392;8.008;2022-07-29T14:07:45;27.70;96.50
3334;DHT22;1679;50.392;8.008;2022-07-29T14:10:11;27.60;96.50
3334;DHT22;1679;50.392;8.008;2022-07-29T14:12:37;27.40;96.50
3334;DHT22;1679;50.392;8.008;2022-07-29T14:15:03;27.10;97.60
3334;DHT22;1679;50.392;8.008;2022-07-29T14:17:28;26.70;98.40
3334;DHT22;1679;50.392;8.008;2022-07-29T14:19:54;26.40;99.60
3334;DHT22;1679;50.392;8.008;2022-07-29T14:22:19;26.30;99.50
3334;DHT22;1679;50.392;8.008;2022-07-29T14:24:45;26.30;99.70
3334;DHT22;1679;50.392;8.008;2022-07-29T14:27:11;26.20;99.10
3334;DHT22;1679;50.392;8.008;2022-07-29T14:29:37;26.10;99.60
3334;DHT22;1679;50.392;8.008;2022-07-29T14:32:03;26.10;99.60
3334;DHT22;1679;50.392;8.008;2022-07-29T14:34:29;26.30;99.20
3334;DHT22;1679;50.392;8.008;2022-07-29T14:36:55;26.40;99.30
3334;DHT22;1679;50.392;8.008;2022-07-29T14:39:24;26.60;99.10
3334;DHT22;1679;50.392;8.008;2022-07-29T14:41:50;26.60;98.90
3334;DHT22;1679;50.392;8.008;2022-07-29T14:44:17;26.80;99.40
3334;DHT22;1679;50.392;8.008;2022-07-29T14:46:43;26.80;99.20
3334;DHT22;1679;50.392;8.008;2022-07-29T14:49:08;26.90;99.40
3334;DHT22;1679;50.392;8.008;2022-07-29T14:51:34;27.10;99.90
3334;DHT22;1679;50.392;8.008;2022-07-29T14:53:59;27.20;99.00
3334;DHT22;1679;50.392;8.008;2022-07-29T14:56:25;27.30;99.10
3334;DHT22;1679;50.392;8.008;2022-07-29T14:58:50;27.30;99.20
3334;DHT22;1679;50.392;8.008;2022-07-29T15:01:16;27.30;99.10
3334;DHT22;1679;50.392;8.008;2022-07-29T15:03:42;27.30;99.60
3334;DHT22;1679;50.392;8.008;2022-07-29T15:06:07;27.30;99.90
3334;DHT22;1679;50.392;8.008;2022-07-29T15:08:33;27.30;99.90
3334;DHT22;1679;50.392;8.008;2022-07-29T15:10:58;27.40;99.90
3334;DHT22;1679;50.392;8.008;2022-07-29T15:13:26;27.40;99.90
3334;DHT22;1679;50.392;8.008;2022-07-29T15:15:51;27.40;99.90
3334;DHT22;1679;50.392;8.008;2022-07-29T15:18:17;27.40;99.90
3334;DHT22;1679;50.392;8.008;2022-07-29T15:20:43;27.30;99.90
3334;DHT22;1679;50.392;8.008;2022-07-29T15:23:11;27.40;99.90
3334;DHT22;1679;50.392;8.008;2022-07-29T15:25:38;27.30;99.90
3334;DHT22;1679;50.392;8.008;2022-07-29T15:28:04;27.10;99.90
3334;DHT22;1679;50.392;8.008;2022-07-29T15:30:33;27.00;99.90
3334;DHT22;1679;50.392;8.008;2022-07-29T15:32:59;27.00;99.90
3334;DHT22;1679;50.392;8.008;2022-07-29T15:35:25;27.10;99.90
3334;DHT22;1679;50.392;8.008;2022-07-29T15:37:50;27.20;99.90
3334;DHT22;1679;50.392;8.008;2022-07-29T15:40:16;27.30;99.90
3334;DHT22;1679;50.392;8.008;2022-07-29T15:42:42;27.40;99.50
3334;DHT22;1679;50.392;8.008;2022-07-29T15:45:07;27.30;98.70
3334;DHT22;1679;50.392;8.008;2022-07-29T15:47:35;27.30;99.10
3334;DHT22;1679;50.392;8.008;2022-07-29T15:50:01;27.20;98.60
3334;DHT22;1679;50.392;8.008;2022-07-29T15:52:26;27.30;98.90
3334;DHT22;1679;50.392;8.008;2022-07-29T15:54:55;27.30;98.90
3334;DHT22;1679;50.392;8.008;2022-07-29T15:57:22;27.50;99.10
3334;DHT22;1679;50.392;8.008;2022-07-29T15:59:48;27.70;99.10
3334;DHT22;1679;50.392;8.008;2022-07-29T16:02:13;27.80;99.00
3334;DHT22;1679;50.392;8.008;2022-07-29T16:04:39;27.90;98.30
3334;DHT22;1679;50.392;8.008;2022-07-29T16:07:04;27.80;98.10
3334;DHT22;1679;50.392;8.008;2022-07-29T16:09:30;27.70;98.00
3334;DHT22;1679;50.392;8.008;2022-07-29T16:11:56;27.30;97.90
3334;DHT22;1679;50.392;8.008;2022-07-29T16:14:21;27.00;98.40
3334;DHT22;1679;50.392;8.008;2022-07-29T16:16:47;26.90;98.40
3334;DHT22;1679;50.392;8.008;2022-07-29T16:19:13;26.70;99.20
3334;DHT22;1679;50.392;8.008;2022-07-29T16:21:39;26.60;99.30
3334;DHT22;1679;50.392;8.008;2022-07-29T16:24:05;26.50;99.20
3334;DHT22;1679;50.392;8.008;2022-07-29T16:26:31;26.50;98.70
3334;DHT22;1679;50.392;8.008;2022-07-29T16:28:57;26.50;98.80
3334;DHT22;1679;50.392;8.008;2022-07-29T16:31:24;26.50;98.60
3334;DHT22;1679;50.392;8.008;2022-07-29T16:33:49;26.40;99.00
3334;DHT22;1679;50.392;8.008;2022-07-29T16:36:16;26.40;98.80
3334;DHT22;1679;50.392;8.008;2022-07-29T16:38:41;26.50;99.20
3334;DHT22;1679;50.392;8.008;2022-07-29T16:41:07;26.50;98.60
3334;DHT22;1679;50.392;8.008;2022-07-29T16:43:33;26.50;98.80
3334;DHT22;1679;50.392;8.008;2022-07-29T16:45:59;26.50;99.70
3334;DHT22;1679;50.392;8.008;2022-07-29T16:48:24;26.50;99.90
3334;DHT22;1679;50.392;8.008;2022-07-29T16:50:50;26.50;99.90
3334;DHT22;1679;50.392;8.008;2022-07-29T16:53:15;26.40;99.90